sensor_id;sensor_type;location;lat;lon;timestamp;P1;durP1;ratioP1;P2;durP2;ratioP2
40339;SDS011;26044;50.864;20.658;2022-11-11T00:01:05;137.98;;;60.63;;
40339;SDS011;26044;50.864;20.658;2022-11-11T00:03:35;121.22;;;57.80;;
40339;SDS011;26044;50.864;20.658;2022-11-11T00:06:02;119.97;;;56.35;;
40339;SDS011;26044;50.864;20.658;2022-11-11T00:08:33;118.07;;;57.35;;
40339;SDS011;26044;50.864;20.658;2022-11-11T00:11:02;104.88;;;56.30;;
40339;SDS011;26044;50.864;20.658;2022-11-11T00:13:38;127.60;;;58.15;;
40339;SDS011;26044;50.864;20.658;2022-11-11T00:16:10;109.43;;;54.35;;
40339;SDS011;26044;50.864;20.658;2022-11-11T00:18:39;123.63;;;57.83;;
40339;SDS011;26044;50.864;20.658;2022-11-11T00:21:25;117.07;;;57.40;;
40339;SDS011;26044;50.864;20.658;2022-11-11T00:24:02;123.05;;;55.30;;
40339;SDS011;26044;50.864;20.658;2022-11-11T00:26:49;103.10;;;52.53;;
40339;SDS011;26044;50.864;20.658;2022-11-11T00:29:16;97.85;;;49.45;;
40339;SDS011;26044;50.864;20.658;2022-11-11T00:31:43;102.10;;;51.38;;
40339;SDS011;26044;50.864;20.658;2022-11-11T00:34:28;86.93;;;48.05;;
40339;SDS011;26044;50.864;20.658;2022-11-11T00:36:55;103.40;;;51.17;;
40339;SDS011;26044;50.864;20.658;2022-11-11T00:39:22;92.07;;;47.95;;
40339;SDS011;26044;50.864;20.658;2022-11-11T00:41:49;95.80;;;49.22;;
40339;SDS011;26044;50.864;20.658;2022-11-11T00:44:18;88.15;;;48.65;;
40339;SDS011;26044;50.864;20.658;2022-11-11T00:46:44;86.03;;;47.63;;
40339;SDS011;26044;50.864;20.658;2022-11-11T00:49:30;93.32;;;49.17;;
40339;SDS011;26044;50.864;20.658;2022-11-11T00:52:15;92.32;;;48.50;;
40339;SDS011;26044;50.864;20.658;2022-11-11T00:54:44;91.63;;;46.85;;
40339;SDS011;26044;50.864;20.658;2022-11-11T00:57:10;105.28;;;51.30;;
40339;SDS011;26044;50.864;20.658;2022-11-11T00:59:39;83.53;;;44.92;;
40339;SDS011;26044;50.864;20.658;2022-11-11T01:02:08;78.43;;;43.08;;
40339;SDS011;26044;50.864;20.658;2022-11-11T01:04:35;81.30;;;45.55;;
40339;SDS011;26044;50.864;20.658;2022-11-11T01:07:01;84.78;;;46.47;;
40339;SDS011;26044;50.864;20.658;2022-11-11T01:09:28;91.70;;;46.60;;
40339;SDS011;26044;50.864;20.658;2022-11-11T01:11:55;82.20;;;43.30;;
40339;SDS011;26044;50.864;20.658;2022-11-11T01:14:22;77.20;;;42.90;;
40339;SDS011;26044;50.864;20.658;2022-11-11T01:16:49;82.28;;;45.00;;
40339;SDS011;26044;50.864;20.658;2022-11-11T01:19:16;80.55;;;43.65;;
40339;SDS011;26044;50.864;20.658;2022-11-11T01:21:43;83.57;;;44.72;;
40339;SDS011;26044;50.864;20.658;2022-11-11T01:24:10;83.32;;;47.08;;
40339;SDS011;26044;50.864;20.658;2022-11-11T01:26:37;86.85;;;50.50;;
40339;SDS011;26044;50.864;20.658;2022-11-11T01:29:03;85.90;;;47.35;;
40339;SDS011;26044;50.864;20.658;2022-11-11T01:31:30;99.70;;;53.50;;
40339;SDS011;26044;50.864;20.658;2022-11-11T01:33:57;89.72;;;50.33;;
40339;SDS011;26044;50.864;20.658;2022-11-11T01:36:25;91.57;;;51.75;;
40339;SDS011;26044;50.864;20.658;2022-11-11T01:38:54;89.95;;;49.58;;
40339;SDS011;26044;50.864;20.658;2022-11-11T01:41:24;95.17;;;53.73;;
40339;SDS011;26044;50.864;20.658;2022-11-11T01:44:00;89.05;;;47.25;;
40339;SDS011;26044;50.864;20.658;2022-11-11T01:57:37;79.18;;;42.33;;
40339;SDS011;26044;50.864;20.658;2022-11-11T02:00:12;70.32;;;38.83;;
40339;SDS011;26044;50.864;20.658;2022-11-11T02:05:15;70.57;;;39.78;;
40339;SDS011;26044;50.864;20.658;2022-11-11T02:08:02;73.38;;;39.00;;
40339;SDS011;26044;50.864;20.658;2022-11-11T02:10:32;75.53;;;38.80;;
40339;SDS011;26044;50.864;20.658;2022-11-11T02:12:59;68.15;;;37.58;;
40339;SDS011;26044;50.864;20.658;2022-11-11T02:15:45;70.95;;;38.88;;
40339;SDS011;26044;50.864;20.658;2022-11-11T02:18:12;64.72;;;36.20;;
40339;SDS011;26044;50.864;20.658;2022-11-11T02:20:40;70.82;;;36.95;;
40339;SDS011;26044;50.864;20.658;2022-11-11T02:25:48;67.93;;;37.78;;
40339;SDS011;26044;50.864;20.658;2022-11-11T02:28:18;70.53;;;38.13;;
40339;SDS011;26044;50.864;20.658;2022-11-11T02:30:47;71.93;;;37.50;;
40339;SDS011;26044;50.864;20.658;2022-11-11T02:33:14;71.20;;;36.95;;
40339;SDS011;26044;50.864;20.658;2022-11-11T02:35:43;66.93;;;36.13;;
40339;SDS011;26044;50.864;20.658;2022-11-11T02:38:11;72.50;;;39.33;;
40339;SDS011;26044;50.864;20.658;2022-11-11T02:40:43;65.05;;;36.88;;
40339;SDS011;26044;50.864;20.658;2022-11-11T02:43:30;70.57;;;37.03;;
40339;SDS011;26044;50.864;20.658;2022-11-11T02:45:58;69.28;;;36.35;;
40339;SDS011;26044;50.864;20.658;2022-11-11T02:48:26;70.90;;;37.63;;
40339;SDS011;26044;50.864;20.658;2022-11-11T02:50:54;65.88;;;34.03;;
40339;SDS011;26044;50.864;20.658;2022-11-11T02:53:21;68.50;;;38.65;;
40339;SDS011;26044;50.864;20.658;2022-11-11T02:55:50;69.95;;;38.03;;
40339;SDS011;26044;50.864;20.658;2022-11-11T02:58:17;70.80;;;37.83;;
40339;SDS011;26044;50.864;20.658;2022-11-11T03:00:45;64.22;;;36.17;;
40339;SDS011;26044;50.864;20.658;2022-11-11T03:03:12;67.10;;;35.03;;
40339;SDS011;26044;50.864;20.658;2022-11-11T03:05:39;65.57;;;35.47;;
40339;SDS011;26044;50.864;20.658;2022-11-11T03:08:12;66.28;;;34.70;;
40339;SDS011;26044;50.864;20.658;2022-11-11T03:10:39;65.95;;;34.80;;
40339;SDS011;26044;50.864;20.658;2022-11-11T03:13:06;69.85;;;36.72;;
40339;SDS011;26044;50.864;20.658;2022-11-11T03:15:33;75.32;;;37.17;;
40339;SDS011;26044;50.864;20.658;2022-11-11T03:18:00;67.35;;;35.50;;
40339;SDS011;26044;50.864;20.658;2022-11-11T03:20:27;71.72;;;36.92;;
40339;SDS011;26044;50.864;20.658;2022-11-11T03:23:13;70.10;;;35.60;;
40339;SDS011;26044;50.864;20.658;2022-11-11T03:25:42;66.03;;;35.00;;
40339;SDS011;26044;50.864;20.658;2022-11-11T03:28:14;72.40;;;37.90;;
40339;SDS011;26044;50.864;20.658;2022-11-11T03:30:47;70.22;;;35.60;;
40339;SDS011;26044;50.864;20.658;2022-11-11T03:33:15;75.10;;;38.08;;
40339;SDS011;26044;50.864;20.658;2022-11-11T03:35:45;77.38;;;36.08;;
40339;SDS011;26044;50.864;20.658;2022-11-11T03:38:12;94.88;;;41.05;;
40339;SDS011;26044;50.864;20.658;2022-11-11T03:40:50;93.97;;;45.78;;
40339;SDS011;26044;50.864;20.658;2022-11-11T03:43:19;98.70;;;45.60;;
40339;SDS011;26044;50.864;20.658;2022-11-11T03:45:48;92.10;;;45.33;;
40339;SDS011;26044;50.864;20.658;2022-11-11T03:48:15;85.90;;;43.25;;
40339;SDS011;26044;50.864;20.658;2022-11-11T03:50:42;86.80;;;44.25;;
40339;SDS011;26044;50.864;20.658;2022-11-11T03:53:09;84.22;;;40.45;;
40339;SDS011;26044;50.864;20.658;2022-11-11T03:55:36;81.07;;;38.83;;
40339;SDS011;26044;50.864;20.658;2022-11-11T03:58:03;78.80;;;39.20;;
40339;SDS011;26044;50.864;20.658;2022-11-11T04:00:30;80.15;;;39.80;;
40339;SDS011;26044;50.864;20.658;2022-11-11T04:03:04;82.82;;;40.88;;
40339;SDS011;26044;50.864;20.658;2022-11-11T04:06:00;81.60;;;41.20;;
40339;SDS011;26044;50.864;20.658;2022-11-11T04:08:45;79.65;;;40.40;;
40339;SDS011;26044;50.864;20.658;2022-11-11T04:14:05;98.20;;;45.70;;
40339;SDS011;26044;50.864;20.658;2022-11-11T04:16:52;84.55;;;41.88;;
40339;SDS011;26044;50.864;20.658;2022-11-11T04:19:19;83.18;;;41.63;;
40339;SDS011;26044;50.864;20.658;2022-11-11T04:22:04;74.28;;;39.03;;
40339;SDS011;26044;50.864;20.658;2022-11-11T04:24:31;76.90;;;38.72;;
40339;SDS011;26044;50.864;20.658;2022-11-11T04:27:19;79.65;;;40.92;;
40339;SDS011;26044;50.864;20.658;2022-11-11T04:29:46;69.35;;;38.30;;
40339;SDS011;26044;50.864;20.658;2022-11-11T04:32:14;71.28;;;37.65;;
40339;SDS011;26044;50.864;20.658;2022-11-11T04:35:13;70.30;;;36.10;;
40339;SDS011;26044;50.864;20.658;2022-11-11T04:37:44;63.20;;;34.05;;
40339;SDS011;26044;50.864;20.658;2022-11-11T04:40:12;62.22;;;32.75;;
40339;SDS011;26044;50.864;20.658;2022-11-11T04:42:57;61.78;;;30.77;;
40339;SDS011;26044;50.864;20.658;2022-11-11T04:45:24;55.83;;;29.77;;
40339;SDS011;26044;50.864;20.658;2022-11-11T04:50:34;57.38;;;28.15;;
40339;SDS011;26044;50.864;20.658;2022-11-11T04:53:01;53.13;;;29.13;;
40339;SDS011;26044;50.864;20.658;2022-11-11T04:55:30;54.15;;;28.08;;
40339;SDS011;26044;50.864;20.658;2022-11-11T04:58:15;53.30;;;28.38;;
40339;SDS011;26044;50.864;20.658;2022-11-11T05:00:44;54.13;;;27.13;;
40339;SDS011;26044;50.864;20.658;2022-11-11T05:03:11;54.05;;;28.65;;
40339;SDS011;26044;50.864;20.658;2022-11-11T05:05:48;58.25;;;31.33;;
40339;SDS011;26044;50.864;20.658;2022-11-11T05:08:41;57.72;;;29.48;;
40339;SDS011;26044;50.864;20.658;2022-11-11T05:11:23;57.10;;;30.25;;
40339;SDS011;26044;50.864;20.658;2022-11-11T05:13:58;58.22;;;30.40;;
40339;SDS011;26044;50.864;20.658;2022-11-11T05:16:54;59.80;;;28.98;;
40339;SDS011;26044;50.864;20.658;2022-11-11T05:19:41;55.83;;;28.75;;
40339;SDS011;26044;50.864;20.658;2022-11-11T05:22:27;62.13;;;32.03;;
40339;SDS011;26044;50.864;20.658;2022-11-11T05:24:56;59.60;;;33.57;;
40339;SDS011;26044;50.864;20.658;2022-11-11T05:27:41;64.03;;;33.03;;
40339;SDS011;26044;50.864;20.658;2022-11-11T05:30:09;76.22;;;36.35;;
40339;SDS011;26044;50.864;20.658;2022-11-11T05:32:38;66.30;;;34.60;;
40339;SDS011;26044;50.864;20.658;2022-11-11T05:35:05;65.90;;;36.03;;
40339;SDS011;26044;50.864;20.658;2022-11-11T05:37:33;70.60;;;38.75;;
40339;SDS011;26044;50.864;20.658;2022-11-11T05:40:00;71.93;;;35.50;;
40339;SDS011;26044;50.864;20.658;2022-11-11T05:42:26;61.75;;;32.28;;
40339;SDS011;26044;50.864;20.658;2022-11-11T05:44:53;61.35;;;31.50;;
40339;SDS011;26044;50.864;20.658;2022-11-11T05:47:20;61.33;;;33.40;;
40339;SDS011;26044;50.864;20.658;2022-11-11T05:49:47;54.28;;;29.58;;
40339;SDS011;26044;50.864;20.658;2022-11-11T05:52:17;56.97;;;29.55;;
40339;SDS011;26044;50.864;20.658;2022-11-11T05:54:45;52.17;;;26.45;;
40339;SDS011;26044;50.864;20.658;2022-11-11T05:57:13;49.58;;;26.70;;
40339;SDS011;26044;50.864;20.658;2022-11-11T05:59:39;59.80;;;27.90;;
40339;SDS011;26044;50.864;20.658;2022-11-11T06:02:06;58.85;;;27.75;;
40339;SDS011;26044;50.864;20.658;2022-11-11T06:04:34;61.20;;;29.65;;
40339;SDS011;26044;50.864;20.658;2022-11-11T06:07:01;57.72;;;28.48;;
40339;SDS011;26044;50.864;20.658;2022-11-11T06:09:28;64.63;;;34.10;;
40339;SDS011;26044;50.864;20.658;2022-11-11T06:11:55;72.80;;;37.10;;
40339;SDS011;26044;50.864;20.658;2022-11-11T06:14:22;57.83;;;32.53;;
40339;SDS011;26044;50.864;20.658;2022-11-11T06:16:49;54.97;;;30.20;;
40339;SDS011;26044;50.864;20.658;2022-11-11T06:19:15;60.85;;;32.05;;
40339;SDS011;26044;50.864;20.658;2022-11-11T06:21:42;66.47;;;35.75;;
40339;SDS011;26044;50.864;20.658;2022-11-11T06:24:26;66.60;;;37.75;;
40339;SDS011;26044;50.864;20.658;2022-11-11T06:26:53;70.45;;;38.60;;
40339;SDS011;26044;50.864;20.658;2022-11-11T06:29:21;69.68;;;38.45;;
40339;SDS011;26044;50.864;20.658;2022-11-11T06:31:48;62.45;;;36.08;;
40339;SDS011;26044;50.864;20.658;2022-11-11T06:34:14;65.05;;;35.35;;
40339;SDS011;26044;50.864;20.658;2022-11-11T06:36:42;70.20;;;38.80;;
40339;SDS011;26044;50.864;20.658;2022-11-11T06:39:09;65.15;;;34.88;;
40339;SDS011;26044;50.864;20.658;2022-11-11T06:41:35;70.35;;;38.42;;
40339;SDS011;26044;50.864;20.658;2022-11-11T06:44:02;65.93;;;36.95;;
40339;SDS011;26044;50.864;20.658;2022-11-11T06:46:29;73.65;;;38.65;;
40339;SDS011;26044;50.864;20.658;2022-11-11T06:48:56;80.32;;;47.05;;
40339;SDS011;26044;50.864;20.658;2022-11-11T06:51:23;92.20;;;51.97;;
40339;SDS011;26044;50.864;20.658;2022-11-11T06:53:50;89.35;;;48.15;;
40339;SDS011;26044;50.864;20.658;2022-11-11T06:56:17;77.15;;;41.72;;
40339;SDS011;26044;50.864;20.658;2022-11-11T06:58:44;63.35;;;36.08;;
40339;SDS011;26044;50.864;20.658;2022-11-11T07:01:11;58.00;;;33.40;;
40339;SDS011;26044;50.864;20.658;2022-11-11T07:03:39;71.38;;;43.72;;
40339;SDS011;26044;50.864;20.658;2022-11-11T07:06:06;78.30;;;48.60;;
40339;SDS011;26044;50.864;20.658;2022-11-11T07:08:33;76.65;;;45.88;;
40339;SDS011;26044;50.864;20.658;2022-11-11T07:11:00;82.72;;;53.05;;
40339;SDS011;26044;50.864;20.658;2022-11-11T07:13:37;77.45;;;45.53;;
40339;SDS011;26044;50.864;20.658;2022-11-11T07:16:04;73.72;;;40.35;;
40339;SDS011;26044;50.864;20.658;2022-11-11T07:18:31;73.25;;;42.85;;
40339;SDS011;26044;50.864;20.658;2022-11-11T07:20:59;65.78;;;36.85;;
40339;SDS011;26044;50.864;20.658;2022-11-11T07:23:26;66.22;;;36.83;;
40339;SDS011;26044;50.864;20.658;2022-11-11T07:25:53;68.53;;;35.72;;
40339;SDS011;26044;50.864;20.658;2022-11-11T07:28:19;66.38;;;34.03;;
40339;SDS011;26044;50.864;20.658;2022-11-11T07:30:46;58.17;;;33.45;;
40339;SDS011;26044;50.864;20.658;2022-11-11T07:33:13;61.72;;;34.30;;
40339;SDS011;26044;50.864;20.658;2022-11-11T07:35:45;64.72;;;32.70;;
40339;SDS011;26044;50.864;20.658;2022-11-11T07:38:12;62.92;;;35.88;;
40339;SDS011;26044;50.864;20.658;2022-11-11T07:40:38;65.95;;;36.33;;
40339;SDS011;26044;50.864;20.658;2022-11-11T07:43:05;65.85;;;35.28;;
40339;SDS011;26044;50.864;20.658;2022-11-11T07:45:32;60.00;;;31.55;;
40339;SDS011;26044;50.864;20.658;2022-11-11T07:47:58;61.47;;;34.30;;
40339;SDS011;26044;50.864;20.658;2022-11-11T07:50:25;60.53;;;33.50;;
40339;SDS011;26044;50.864;20.658;2022-11-11T07:52:52;66.40;;;36.15;;
40339;SDS011;26044;50.864;20.658;2022-11-11T07:55:19;65.00;;;35.05;;
40339;SDS011;26044;50.864;20.658;2022-11-11T07:57:46;53.05;;;26.20;;
40339;SDS011;26044;50.864;20.658;2022-11-11T08:00:12;45.95;;;22.27;;
40339;SDS011;26044;50.864;20.658;2022-11-11T08:02:40;47.50;;;22.88;;
40339;SDS011;26044;50.864;20.658;2022-11-11T08:05:11;48.00;;;22.30;;
40339;SDS011;26044;50.864;20.658;2022-11-11T08:07:38;47.38;;;22.38;;
40339;SDS011;26044;50.864;20.658;2022-11-11T08:10:05;47.17;;;24.40;;
40339;SDS011;26044;50.864;20.658;2022-11-11T08:12:32;46.10;;;22.83;;
40339;SDS011;26044;50.864;20.658;2022-11-11T08:15:17;50.83;;;21.95;;
40339;SDS011;26044;50.864;20.658;2022-11-11T08:17:44;47.25;;;21.33;;
40339;SDS011;26044;50.864;20.658;2022-11-11T08:20:11;47.40;;;23.73;;
40339;SDS011;26044;50.864;20.658;2022-11-11T08:22:39;43.63;;;22.20;;
40339;SDS011;26044;50.864;20.658;2022-11-11T08:25:13;44.63;;;20.73;;
40339;SDS011;26044;50.864;20.658;2022-11-11T08:27:40;43.13;;;20.65;;
40339;SDS011;26044;50.864;20.658;2022-11-11T08:30:07;42.38;;;20.55;;
40339;SDS011;26044;50.864;20.658;2022-11-11T08:32:35;42.97;;;18.73;;
40339;SDS011;26044;50.864;20.658;2022-11-11T08:35:02;41.40;;;19.35;;
40339;SDS011;26044;50.864;20.658;2022-11-11T08:37:30;42.22;;;19.10;;
40339;SDS011;26044;50.864;20.658;2022-11-11T08:39:57;49.30;;;18.48;;
40339;SDS011;26044;50.864;20.658;2022-11-11T08:42:24;43.50;;;17.83;;
40339;SDS011;26044;50.864;20.658;2022-11-11T08:44:51;39.70;;;17.77;;
40339;SDS011;26044;50.864;20.658;2022-11-11T08:47:18;35.85;;;16.27;;
40339;SDS011;26044;50.864;20.658;2022-11-11T08:49:47;41.78;;;18.25;;
40339;SDS011;26044;50.864;20.658;2022-11-11T08:52:16;35.05;;;15.48;;
40339;SDS011;26044;50.864;20.658;2022-11-11T08:54:44;38.20;;;17.52;;
40339;SDS011;26044;50.864;20.658;2022-11-11T08:57:11;36.55;;;16.40;;
40339;SDS011;26044;50.864;20.658;2022-11-11T08:59:37;41.47;;;16.70;;
40339;SDS011;26044;50.864;20.658;2022-11-11T09:02:13;35.05;;;14.90;;
40339;SDS011;26044;50.864;20.658;2022-11-11T09:04:41;36.83;;;16.08;;
40339;SDS011;26044;50.864;20.658;2022-11-11T09:07:16;35.08;;;15.93;;
40339;SDS011;26044;50.864;20.658;2022-11-11T09:09:45;36.65;;;13.93;;
40339;SDS011;26044;50.864;20.658;2022-11-11T09:12:15;38.72;;;16.17;;
40339;SDS011;26044;50.864;20.658;2022-11-11T09:14:43;33.67;;;14.45;;
40339;SDS011;26044;50.864;20.658;2022-11-11T09:17:10;40.28;;;16.45;;
40339;SDS011;26044;50.864;20.658;2022-11-11T09:19:42;34.13;;;13.88;;
40339;SDS011;26044;50.864;20.658;2022-11-11T09:22:14;37.95;;;15.35;;
40339;SDS011;26044;50.864;20.658;2022-11-11T09:24:47;36.55;;;14.75;;
40339;SDS011;26044;50.864;20.658;2022-11-11T09:27:16;41.78;;;16.40;;
40339;SDS011;26044;50.864;20.658;2022-11-11T09:29:58;45.33;;;14.88;;
40339;SDS011;26044;50.864;20.658;2022-11-11T09:32:33;32.13;;;13.93;;
40339;SDS011;26044;50.864;20.658;2022-11-11T09:35:03;31.17;;;12.95;;
40339;SDS011;26044;50.864;20.658;2022-11-11T09:37:36;32.95;;;13.90;;
40339;SDS011;26044;50.864;20.658;2022-11-11T09:40:03;33.10;;;13.73;;
40339;SDS011;26044;50.864;20.658;2022-11-11T09:42:43;34.47;;;13.43;;
40339;SDS011;26044;50.864;20.658;2022-11-11T09:45:55;39.83;;;14.80;;
40339;SDS011;26044;50.864;20.658;2022-11-11T09:54:42;27.88;;;11.02;;
40339;SDS011;26044;50.864;20.658;2022-11-11T09:57:16;30.77;;;12.48;;
40339;SDS011;26044;50.864;20.658;2022-11-11T09:59:49;27.08;;;11.10;;
40339;SDS011;26044;50.864;20.658;2022-11-11T10:07:37;33.67;;;10.57;;
40339;SDS011;26044;50.864;20.658;2022-11-11T10:10:22;31.30;;;10.85;;
40339;SDS011;26044;50.864;20.658;2022-11-11T10:12:56;24.52;;;9.48;;
40339;SDS011;26044;50.864;20.658;2022-11-11T10:15:25;30.30;;;10.15;;
40339;SDS011;26044;50.864;20.658;2022-11-11T10:18:03;32.72;;;12.10;;
40339;SDS011;26044;50.864;20.658;2022-11-11T10:20:55;25.73;;;9.85;;
40339;SDS011;26044;50.864;20.658;2022-11-11T10:23:28;26.77;;;8.82;;
40339;SDS011;26044;50.864;20.658;2022-11-11T10:26:06;27.00;;;9.18;;
40339;SDS011;26044;50.864;20.658;2022-11-11T10:28:42;27.23;;;8.77;;
40339;SDS011;26044;50.864;20.658;2022-11-11T10:31:12;26.58;;;9.40;;
40339;SDS011;26044;50.864;20.658;2022-11-11T10:33:53;20.30;;;8.20;;
40339;SDS011;26044;50.864;20.658;2022-11-11T10:36:30;28.27;;;8.75;;
40339;SDS011;26044;50.864;20.658;2022-11-11T10:39:07;25.05;;;8.05;;
40339;SDS011;26044;50.864;20.658;2022-11-11T10:41:45;26.95;;;8.80;;
40339;SDS011;26044;50.864;20.658;2022-11-11T10:46:51;23.20;;;9.07;;
40339;SDS011;26044;50.864;20.658;2022-11-11T10:49:38;22.92;;;8.93;;
40339;SDS011;26044;50.864;20.658;2022-11-11T10:52:18;24.02;;;7.88;;
40339;SDS011;26044;50.864;20.658;2022-11-11T10:54:54;26.92;;;7.75;;
40339;SDS011;26044;50.864;20.658;2022-11-11T10:57:41;26.30;;;7.80;;
40339;SDS011;26044;50.864;20.658;2022-11-11T11:00:16;20.40;;;7.45;;
40339;SDS011;26044;50.864;20.658;2022-11-11T11:03:00;26.35;;;8.63;;
40339;SDS011;26044;50.864;20.658;2022-11-11T11:05:36;24.33;;;8.18;;
40339;SDS011;26044;50.864;20.658;2022-11-11T11:08:13;24.70;;;8.63;;
40339;SDS011;26044;50.864;20.658;2022-11-11T11:10:44;22.52;;;7.75;;
40339;SDS011;26044;50.864;20.658;2022-11-11T11:13:16;26.50;;;10.10;;
40339;SDS011;26044;50.864;20.658;2022-11-11T11:16:03;33.75;;;12.57;;
40339;SDS011;26044;50.864;20.658;2022-11-11T11:18:36;25.88;;;8.73;;
40339;SDS011;26044;50.864;20.658;2022-11-11T11:21:08;26.77;;;9.32;;
40339;SDS011;26044;50.864;20.658;2022-11-11T11:23:42;26.40;;;7.65;;
40339;SDS011;26044;50.864;20.658;2022-11-11T11:26:11;25.30;;;9.05;;
40339;SDS011;26044;50.864;20.658;2022-11-11T11:28:55;21.75;;;7.88;;
40339;SDS011;26044;50.864;20.658;2022-11-11T11:31:33;24.40;;;8.13;;
40339;SDS011;26044;50.864;20.658;2022-11-11T11:34:04;23.38;;;8.57;;
40339;SDS011;26044;50.864;20.658;2022-11-11T11:36:31;25.67;;;9.73;;
40339;SDS011;26044;50.864;20.658;2022-11-11T11:38:58;22.65;;;8.15;;
40339;SDS011;26044;50.864;20.658;2022-11-11T11:41:36;23.73;;;7.28;;
40339;SDS011;26044;50.864;20.658;2022-11-11T11:44:15;22.58;;;8.48;;
40339;SDS011;26044;50.864;20.658;2022-11-11T11:47:48;27.00;;;8.85;;
40339;SDS011;26044;50.864;20.658;2022-11-11T12:01:36;29.88;;;9.00;;
40339;SDS011;26044;50.864;20.658;2022-11-11T12:10:02;30.23;;;8.98;;
40339;SDS011;26044;50.864;20.658;2022-11-11T12:18:11;23.60;;;8.45;;
40339;SDS011;26044;50.864;20.658;2022-11-11T12:20:51;26.83;;;9.30;;
40339;SDS011;26044;50.864;20.658;2022-11-11T12:31:56;23.98;;;8.10;;
40339;SDS011;26044;50.864;20.658;2022-11-11T12:37:19;25.30;;;8.18;;
40339;SDS011;26044;50.864;20.658;2022-11-11T12:45:41;26.27;;;7.60;;
40339;SDS011;26044;50.864;20.658;2022-11-11T12:48:32;24.38;;;8.02;;
40339;SDS011;26044;50.864;20.658;2022-11-11T12:51:18;24.42;;;8.05;;
40339;SDS011;26044;50.864;20.658;2022-11-11T12:54:00;25.73;;;7.60;;
40339;SDS011;26044;50.864;20.658;2022-11-11T12:59:53;21.30;;;6.97;;
40339;SDS011;26044;50.864;20.658;2022-11-11T13:05:24;20.90;;;7.70;;
40339;SDS011;26044;50.864;20.658;2022-11-11T13:10:51;24.08;;;8.23;;
40339;SDS011;26044;50.864;20.658;2022-11-11T13:16:00;23.33;;;8.38;;
40339;SDS011;26044;50.864;20.658;2022-11-11T13:21:47;23.92;;;7.68;;
40339;SDS011;26044;50.864;20.658;2022-11-11T13:24:21;39.78;;;15.88;;
40339;SDS011;26044;50.864;20.658;2022-11-11T13:26:56;43.20;;;20.38;;
40339;SDS011;26044;50.864;20.658;2022-11-11T13:32:00;28.25;;;11.40;;
40339;SDS011;26044;50.864;20.658;2022-11-11T13:34:34;41.72;;;18.63;;
40339;SDS011;26044;50.864;20.658;2022-11-11T13:37:05;33.47;;;13.00;;
40339;SDS011;26044;50.864;20.658;2022-11-11T13:39:54;31.15;;;14.05;;
40339;SDS011;26044;50.864;20.658;2022-11-11T13:42:30;30.35;;;11.68;;
40339;SDS011;26044;50.864;20.658;2022-11-11T13:45:04;33.38;;;11.38;;
40339;SDS011;26044;50.864;20.658;2022-11-11T13:47:38;32.17;;;12.38;;
40339;SDS011;26044;50.864;20.658;2022-11-11T13:50:30;27.08;;;9.52;;
40339;SDS011;26044;50.864;20.658;2022-11-11T13:53:03;30.77;;;11.63;;
40339;SDS011;26044;50.864;20.658;2022-11-11T13:55:42;33.25;;;12.00;;
40339;SDS011;26044;50.864;20.658;2022-11-11T13:58:29;34.22;;;10.50;;
40339;SDS011;26044;50.864;20.658;2022-11-11T14:01:04;23.95;;;8.55;;
40339;SDS011;26044;50.864;20.658;2022-11-11T14:03:34;24.92;;;9.20;;
40339;SDS011;26044;50.864;20.658;2022-11-11T14:08:56;25.05;;;8.48;;
40339;SDS011;26044;50.864;20.658;2022-11-11T14:13:50;27.52;;;8.90;;
40339;SDS011;26044;50.864;20.658;2022-11-11T14:21:49;25.85;;;9.27;;
40339;SDS011;26044;50.864;20.658;2022-11-11T14:29:53;30.17;;;9.98;;
40339;SDS011;26044;50.864;20.658;2022-11-11T14:37:56;25.63;;;10.02;;
40339;SDS011;26044;50.864;20.658;2022-11-11T14:40:40;30.92;;;10.93;;
40339;SDS011;26044;50.864;20.658;2022-11-11T14:46:04;28.40;;;10.98;;
40339;SDS011;26044;50.864;20.658;2022-11-11T14:52:12;29.63;;;11.65;;
40339;SDS011;26044;50.864;20.658;2022-11-11T14:54:32;28.65;;;12.63;;
40339;SDS011;26044;50.864;20.658;2022-11-11T14:57:03;28.67;;;11.23;;
40339;SDS011;26044;50.864;20.658;2022-11-11T14:59:33;31.10;;;13.75;;
40339;SDS011;26044;50.864;20.658;2022-11-11T15:02:00;29.95;;;12.20;;
40339;SDS011;26044;50.864;20.658;2022-11-11T15:04:35;27.67;;;12.25;;
40339;SDS011;26044;50.864;20.658;2022-11-11T15:07:03;29.15;;;12.40;;
40339;SDS011;26044;50.864;20.658;2022-11-11T15:09:55;31.63;;;14.40;;
40339;SDS011;26044;50.864;20.658;2022-11-11T15:12:44;30.98;;;11.75;;
40339;SDS011;26044;50.864;20.658;2022-11-11T15:15:35;28.80;;;12.10;;
40339;SDS011;26044;50.864;20.658;2022-11-11T15:21:32;31.80;;;12.30;;
40339;SDS011;26044;50.864;20.658;2022-11-11T15:29:34;27.15;;;9.98;;
40339;SDS011;26044;50.864;20.658;2022-11-11T15:35:04;27.83;;;9.63;;
40339;SDS011;26044;50.864;20.658;2022-11-11T15:37:54;28.27;;;10.48;;
40339;SDS011;26044;50.864;20.658;2022-11-11T15:40:25;31.25;;;10.02;;
40339;SDS011;26044;50.864;20.658;2022-11-11T15:42:57;27.08;;;11.10;;
40339;SDS011;26044;50.864;20.658;2022-11-11T15:45:31;29.50;;;11.23;;
40339;SDS011;26044;50.864;20.658;2022-11-11T15:48:00;28.35;;;10.55;;
40339;SDS011;26044;50.864;20.658;2022-11-11T15:50:30;28.98;;;11.20;;
40339;SDS011;26044;50.864;20.658;2022-11-11T15:53:01;28.17;;;12.07;;
40339;SDS011;26044;50.864;20.658;2022-11-11T15:55:34;39.50;;;14.63;;
40339;SDS011;26044;50.864;20.658;2022-11-11T15:58:09;32.28;;;14.63;;
40339;SDS011;26044;50.864;20.658;2022-11-11T16:00:58;44.35;;;16.40;;
40339;SDS011;26044;50.864;20.658;2022-11-11T16:03:33;37.58;;;17.20;;
40339;SDS011;26044;50.864;20.658;2022-11-11T16:06:10;36.33;;;14.60;;
40339;SDS011;26044;50.864;20.658;2022-11-11T16:08:42;30.15;;;11.65;;
40339;SDS011;26044;50.864;20.658;2022-11-11T16:11:12;29.27;;;11.98;;
40339;SDS011;26044;50.864;20.658;2022-11-11T16:13:45;29.67;;;11.60;;
40339;SDS011;26044;50.864;20.658;2022-11-11T16:16:32;31.33;;;11.88;;
40339;SDS011;26044;50.864;20.658;2022-11-11T16:21:39;29.98;;;12.60;;
40339;SDS011;26044;50.864;20.658;2022-11-11T16:24:27;32.13;;;12.13;;
40339;SDS011;26044;50.864;20.658;2022-11-11T16:26:57;35.72;;;13.80;;
40339;SDS011;26044;50.864;20.658;2022-11-11T16:29:26;36.70;;;13.65;;
40339;SDS011;26044;50.864;20.658;2022-11-11T16:34:48;31.08;;;14.23;;
40339;SDS011;26044;50.864;20.658;2022-11-11T16:37:18;34.70;;;14.90;;
40339;SDS011;26044;50.864;20.658;2022-11-11T16:39:46;37.40;;;15.77;;
40339;SDS011;26044;50.864;20.658;2022-11-11T16:44:59;37.53;;;15.32;;
40339;SDS011;26044;50.864;20.658;2022-11-11T16:52:42;37.53;;;15.40;;
40339;SDS011;26044;50.864;20.658;2022-11-11T16:55:29;33.72;;;15.35;;
40339;SDS011;26044;50.864;20.658;2022-11-11T16:58:08;53.13;;;21.98;;
40339;SDS011;26044;50.864;20.658;2022-11-11T17:00:42;37.55;;;15.85;;
40339;SDS011;26044;50.864;20.658;2022-11-11T17:03:16;31.35;;;14.63;;
40339;SDS011;26044;50.864;20.658;2022-11-11T17:05:53;37.57;;;15.00;;
40339;SDS011;26044;50.864;20.658;2022-11-11T17:08:27;30.70;;;13.15;;